FIT weather

Fitchburg Municipal Airport
Fitchburg, Massachusetts, United States

Public forecast

Using degrees Fahrenheit for public forecast. Weather courtesy of forecast.io.

Current aviation weather report (METAR) for Fitchburg Municipal Airport

Retrieved 2019/10/21 13:52 UTC (56 minutes ago):

KFIT 211352Z AUTO 09004KT 10SM CLR 11/08 A3012 RMK AO2 SLP202 T01110078

Closest aviation forecast (TAF) to Fitchburg Municipal Airport

Closest forecast is Worcester Regional Airport, 18.0 nm (33.3 km) SSW. Retrieved 2019/10/21 12:28 UTC (2 hours ago):

TAF KORH 211126Z 2112/2212 02006KT 1/2SM FG OVC002 FM211300 02007KT 4SM BR SCT002 BKN100 FM211400 03007KT P6SM SCT200 FM211800 05006KT P6SM SKC FM220600 04005KT P6SM BKN200 FM220900 04005KT P6SM SCT150